Time;durP1;ratioP1;P1;durP2;ratioP2;P2;SDS_P1;SDS_P2;PMS_P1;PMS_P2;Temp;Humidity;BMP_temperature;BMP_pressure;BME280_temperature;BME280_humidity;BME280_pressure;Samples;Min_cycle;Max_cycle;Signal;HPM_P1;HPM_P2
2023/09/19 00:02:08;;;;;;;459.03;443.27;;;;;;;;;;5052404;28;20200;-95
2023/09/19 00:04:34;;;;;;;425.37;412.43;;;;;;;;;;5055530;28;20146;-95
2023/09/19 00:07:02;;;;;;;427.87;414.63;;;;;;;;;;5050369;28;20227;-96
2023/09/19 00:09:28;;;;;;;401.10;388.80;;;;;;;;;;5053396;28;20292;-95
2023/09/19 00:11:54;;;;;;;414.10;401.17;;;;;;;;;;5053243;28;20257;-96
2023/09/19 00:14:24;;;;;;;432.50;418.93;;;;;;;;;;5064691;28;20575;-95
2023/09/19 00:16:50;;;;;;;416.07;403.17;;;;;;;;;;5035443;28;20178;-94
2023/09/19 00:19:16;;;;;;;452.17;437.97;;;;;;;;;;5034810;28;20204;-94
2023/09/19 00:21:43;;;;;;;424.10;410.90;;;;;;;;;;5053723;28;20185;-95
2023/09/19 00:24:11;;;;;;;446.80;432.87;;;;;;;;;;5053678;28;20237;-94
2023/09/19 00:26:38;;;;;;;588.43;561.57;;;;;;;;;;5052715;28;20223;-96
2023/09/19 00:29:04;;;;;;;429.83;416.40;;;;;;;;;;5057787;28;20263;-95
2023/09/19 00:31:30;;;;;;;437.53;424.07;;;;;;;;;;5055732;28;20173;-95
2023/09/19 00:33:59;;;;;;;445.57;431.87;;;;;;;;;;5037129;28;20258;-95
2023/09/19 00:36:25;;;;;;;420.83;407.83;;;;;;;;;;5052552;28;20270;-95
2023/09/19 00:38:51;;;;;;;448.60;434.57;;;;;;;;;;5047626;28;20211;-95
2023/09/19 00:41:17;;;;;;;484.07;468.13;;;;;;;;;;5073624;28;20169;-95
2023/09/19 00:43:43;;;;;;;437.40;423.90;;;;;;;;;;5076915;28;20188;-95
2023/09/19 00:46:10;;;;;;;425.23;412.07;;;;;;;;;;5051475;28;20239;-95
2023/09/19 00:48:43;;;;;;;418.57;405.73;;;;;;;;;;5055884;28;20199;-94
2023/09/19 00:51:09;;;;;;;377.87;366.53;;;;;;;;;;5040893;28;20169;-95
2023/09/19 00:53:35;;;;;;;444.60;429.77;;;;;;;;;;5040922;28;20177;-94
2023/09/19 00:56:03;;;;;;;415.20;402.47;;;;;;;;;;5056515;28;20171;-95
2023/09/19 00:58:33;;;;;;;407.33;395.03;;;;;;;;;;5057741;28;20236;-96
2023/09/19 01:00:59;;;;;;;393.43;381.47;;;;;;;;;;5040104;28;20184;-95
2023/09/19 01:03:26;;;;;;;382.90;371.43;;;;;;;;;;5040851;28;20207;-94
2023/09/19 01:05:52;;;;;;;428.50;415.43;;;;;;;;;;5057892;28;20187;-94
2023/09/19 01:08:18;;;;;;;426.30;413.13;;;;;;;;;;5058188;28;20153;-96
2023/09/19 01:11:10;;;;;;;405.70;393.40;;;;;;;;;;5061073;28;20202;-96
2023/09/19 01:13:44;;;;;;;389.73;378.07;;;;;;;;;;5079872;22;20301;-88
2023/09/19 01:16:29;;;;;;;423.77;410.63;;;;;;;;;;5050135;28;20252;-86
2023/09/19 01:19:00;;;;;;;419.97;407.07;;;;;;;;;;5050216;28;20205;-89
2023/09/19 01:21:28;;;;;;;378.70;367.33;;;;;;;;;;5040498;28;20217;-88
2023/09/19 01:24:13;;;;;;;442.93;429.13;;;;;;;;;;5039128;28;20291;-90
2023/09/19 01:26:48;;;;;;;415.53;402.70;;;;;;;;;;5037529;28;20226;-88
2023/09/19 01:29:33;;;;;;;391.23;379.43;;;;;;;;;;5038537;28;20196;-89
2023/09/19 01:32:02;;;;;;;373.23;362.20;;;;;;;;;;5039916;28;20686;-88
2023/09/19 01:34:45;;;;;;;389.73;378.00;;;;;;;;;;5040386;28;20216;-89
2023/09/19 01:37:11;;;;;;;366.43;355.77;;;;;;;;;;5021044;28;20192;-88
2023/09/19 01:39:37;;;;;;;388.30;376.33;;;;;;;;;;5047166;28;20197;-87
2023/09/19 01:42:22;;;;;;;390.10;378.50;;;;;;;;;;5039280;28;20193;-89
2023/09/19 01:44:48;;;;;;;375.50;364.37;;;;;;;;;;5036555;28;20216;-89
2023/09/19 01:47:35;;;;;;;408.70;396.13;;;;;;;;;;5037285;28;20193;-89
2023/09/19 01:50:02;;;;;;;398.67;386.67;;;;;;;;;;5038906;28;20189;-88
2023/09/19 01:52:31;;;;;;;422.67;409.53;;;;;;;;;;5039089;28;20243;-88
2023/09/19 01:55:05;;;;;;;419.57;406.70;;;;;;;;;;5038135;28;20299;-89
2023/09/19 01:57:35;;;;;;;397.43;385.33;;;;;;;;;;5038497;28;20238;-89
2023/09/19 02:00:06;;;;;;;408.40;395.93;;;;;;;;;;5021693;28;20205;-89
2023/09/19 02:02:44;;;;;;;448.53;434.70;;;;;;;;;;5038291;28;20185;-90
2023/09/19 02:05:12;;;;;;;421.60;408.47;;;;;;;;;;5036370;28;20271;-88
2023/09/19 02:07:39;;;;;;;436.73;423.23;;;;;;;;;;5036415;28;20201;-88
2023/09/19 02:10:10;;;;;;;421.87;408.97;;;;;;;;;;5036814;28;20196;-89
2023/09/19 02:12:36;;;;;;;416.57;403.63;;;;;;;;;;5038972;28;20689;-88
2023/09/19 02:15:02;;;;;;;435.27;421.97;;;;;;;;;;5038064;28;20208;-88
2023/09/19 02:17:28;;;;;;;422.87;409.83;;;;;;;;;;5037801;28;20739;-89
2023/09/19 02:19:58;;;;;;;417.60;404.57;;;;;;;;;;5037977;28;20186;-89
2023/09/19 02:22:24;;;;;;;406.43;394.10;;;;;;;;;;5019789;28;20649;-88
2023/09/19 02:24:52;;;;;;;418.20;405.60;;;;;;;;;;5036758;28;20244;-89
2023/09/19 02:27:19;;;;;;;456.57;441.97;;;;;;;;;;5037737;28;20548;-89
2023/09/19 02:29:45;;;;;;;447.43;433.70;;;;;;;;;;5036644;28;20637;-88
2023/09/19 02:32:11;;;;;;;457.00;442.80;;;;;;;;;;5037414;28;20263;-90
2023/09/19 02:34:38;;;;;;;451.00;436.80;;;;;;;;;;5029260;28;20229;-89
2023/09/19 02:37:05;;;;;;;467.70;453.10;;;;;;;;;;5037082;28;20946;-88
2023/09/19 02:39:31;;;;;;;473.47;458.27;;;;;;;;;;5036672;28;20185;-88
2023/09/19 02:41:57;;;;;;;458.30;443.83;;;;;;;;;;5036344;28;20245;-88
2023/09/19 02:44:23;;;;;;;462.63;447.87;;;;;;;;;;5037302;28;20734;-88
2023/09/19 02:46:50;;;;;;;462.47;447.90;;;;;;;;;;5036605;28;20679;-89
2023/09/19 02:49:17;;;;;;;490.10;474.40;;;;;;;;;;5043678;28;20199;-89
2023/09/19 02:51:43;;;;;;;463.87;449.33;;;;;;;;;;5036956;28;20187;-88
2023/09/19 02:54:10;;;;;;;444.50;430.70;;;;;;;;;;5036499;28;20234;-88
2023/09/19 02:56:37;;;;;;;467.40;453.00;;;;;;;;;;5035508;28;20689;-89
2023/09/19 02:59:03;;;;;;;469.13;454.40;;;;;;;;;;5035793;28;20188;-89
2023/09/19 03:01:29;;;;;;;477.80;462.40;;;;;;;;;;5044079;28;20196;-89
2023/09/19 03:03:55;;;;;;;443.43;429.90;;;;;;;;;;5031117;28;20534;-89
2023/09/19 03:06:23;;;;;;;449.30;435.40;;;;;;;;;;5035036;28;20266;-89
2023/09/19 03:08:51;;;;;;;445.00;431.30;;;;;;;;;;5035545;28;20211;-89
2023/09/19 03:11:21;;;;;;;428.13;414.53;;;;;;;;;;5036103;28;20188;-89
2023/09/19 03:13:50;;;;;;;420.57;407.90;;;;;;;;;;5018439;28;20262;-88
2023/09/19 03:16:16;;;;;;;433.47;419.93;;;;;;;;;;5035672;28;20192;-89
2023/09/19 03:18:43;;;;;;;441.23;427.60;;;;;;;;;;5035922;28;20322;-88
2023/09/19 03:21:09;;;;;;;439.77;426.30;;;;;;;;;;5035954;28;20191;-88
2023/09/19 03:23:36;;;;;;;438.63;425.13;;;;;;;;;;5036704;28;20215;-89
2023/09/19 03:26:04;;;;;;;494.30;478.60;;;;;;;;;;5018451;28;20224;-89
2023/09/19 03:28:34;;;;;;;474.40;459.57;;;;;;;;;;5036077;28;20468;-88
2023/09/19 03:31:04;;;;;;;442.93;429.33;;;;;;;;;;5036592;28;20197;-88
2023/09/19 03:33:33;;;;;;;435.17;421.80;;;;;;;;;;5034792;28;20220;-88
2023/09/19 03:36:00;;;;;;;441.77;428.13;;;;;;;;;;5034444;28;20212;-88
2023/09/19 03:38:27;;;;;;;441.00;427.50;;;;;;;;;;5034329;28;20189;-88
2023/09/19 03:40:53;;;;;;;428.83;415.83;;;;;;;;;;5017785;28;20280;-88
2023/09/19 03:43:19;;;;;;;430.03;417.00;;;;;;;;;;5036732;28;20212;-89
2023/09/19 03:45:46;;;;;;;435.63;422.17;;;;;;;;;;5036638;28;20209;-88
2023/09/19 03:48:13;;;;;;;447.70;433.90;;;;;;;;;;5035182;28;20181;-89
2023/09/19 03:50:39;;;;;;;468.47;453.77;;;;;;;;;;5035579;28;20182;-91
2023/09/19 03:53:07;;;;;;;474.43;459.50;;;;;;;;;;5035026;28;20268;-91
2023/09/19 03:55:35;;;;;;;464.03;449.33;;;;;;;;;;5044148;28;20188;-92
2023/09/19 03:58:02;;;;;;;473.10;458.13;;;;;;;;;;5019634;28;20248;-92
2023/09/19 04:00:29;;;;;;;488.10;472.73;;;;;;;;;;5032927;28;20234;-90
2023/09/19 04:02:56;;;;;;;456.90;442.87;;;;;;;;;;5033148;28;20621;-90
2023/09/19 04:05:23;;;;;;;433.90;420.30;;;;;;;;;;5032553;28;20230;-91
2023/09/19 04:07:50;;;;;;;458.47;444.33;;;;;;;;;;5038273;28;20195;-91
2023/09/19 04:10:16;;;;;;;509.53;493.23;;;;;;;;;;5037391;28;20192;-90
2023/09/19 04:12:51;;;;;;;497.03;481.03;;;;;;;;;;5036136;28;20200;-91
2023/09/19 04:15:17;;;;;;;498.03;482.00;;;;;;;;;;5016999;28;20228;-90
2023/09/19 04:17:43;;;;;;;488.10;472.77;;;;;;;;;;5037162;28;20188;-91
2023/09/19 04:20:12;;;;;;;501.47;485.40;;;;;;;;;;5039993;28;20543;-90
2023/09/19 04:22:39;;;;;;;470.17;455.40;;;;;;;;;;5047532;28;20258;-91
2023/09/19 04:25:08;;;;;;;494.93;479.03;;;;;;;;;;5021170;28;20311;-90
2023/09/19 04:27:34;;;;;;;501.80;485.77;;;;;;;;;;5038508;28;20184;-90
2023/09/19 04:30:05;;;;;;;482.00;466.67;;;;;;;;;;5038098;28;20179;-90
2023/09/19 04:32:32;;;;;;;479.13;464.00;;;;;;;;;;5037490;28;20576;-91
2023/09/19 04:35:00;;;;;;;500.93;484.87;;;;;;;;;;5038336;28;20233;-89
2023/09/19 04:37:26;;;;;;;498.10;482.20;;;;;;;;;;5037970;28;20243;-90
2023/09/19 04:39:52;;;;;;;486.93;471.50;;;;;;;;;;5032075;28;20208;-90
2023/09/19 04:42:19;;;;;;;510.63;494.27;;;;;;;;;;5040075;28;20189;-90
2023/09/19 04:44:45;;;;;;;512.07;495.43;;;;;;;;;;5020537;28;20289;-90
2023/09/19 04:47:12;;;;;;;498.83;482.77;;;;;;;;;;5020219;28;20776;-89
2023/09/19 04:49:39;;;;;;;476.67;461.77;;;;;;;;;;5039601;28;20192;-90
2023/09/19 04:52:06;;;;;;;434.30;420.83;;;;;;;;;;5038805;28;20185;-90
2023/09/19 04:54:33;;;;;;;434.37;421.20;;;;;;;;;;5020482;28;20213;-89
2023/09/19 04:57:00;;;;;;;426.77;413.60;;;;;;;;;;5035698;28;20184;-89
2023/09/19 04:59:28;;;;;;;431.97;418.87;;;;;;;;;;5032259;28;20190;-88
2023/09/19 05:01:54;;;;;;;466.73;451.93;;;;;;;;;;5038050;28;20278;-90
2023/09/19 05:04:20;;;;;;;460.50;446.10;;;;;;;;;;5037750;28;20213;-89
2023/09/19 05:06:46;;;;;;;414.83;402.23;;;;;;;;;;5030782;28;20282;-88
2023/09/19 05:09:13;;;;;;;429.83;416.80;;;;;;;;;;5036609;28;20194;-90
2023/09/19 05:11:39;;;;;;;426.97;413.87;;;;;;;;;;5038623;28;20292;-89
2023/09/19 05:14:05;;;;;;;413.43;400.77;;;;;;;;;;5046179;28;20270;-91
2023/09/19 05:16:31;;;;;;;409.07;396.63;;;;;;;;;;5040795;28;20189;-90
2023/09/19 05:18:59;;;;;;;430.77;417.60;;;;;;;;;;5044577;28;20201;-90
2023/09/19 05:21:28;;;;;;;429.27;416.20;;;;;;;;;;5039600;28;20193;-89
2023/09/19 05:23:54;;;;;;;422.40;409.30;;;;;;;;;;5039032;28;20283;-90
2023/09/19 05:26:20;;;;;;;408.93;396.40;;;;;;;;;;5020009;28;20238;-90
2023/09/19 05:28:48;;;;;;;406.30;393.87;;;;;;;;;;5037004;28;20191;-92
2023/09/19 05:31:15;;;;;;;408.67;396.10;;;;;;;;;;5037838;28;20736;-90
2023/09/19 05:33:42;;;;;;;408.73;396.30;;;;;;;;;;5020045;28;20736;-90
2023/09/19 05:36:10;;;;;;;421.27;408.40;;;;;;;;;;5037797;28;20540;-90
2023/09/19 05:38:36;;;;;;;410.33;397.70;;;;;;;;;;5038037;28;20189;-91
2023/09/19 05:41:03;;;;;;;403.57;391.30;;;;;;;;;;5038963;28;20191;-91
2023/09/19 05:43:29;;;;;;;415.93;403.17;;;;;;;;;;5038020;28;20216;-91
2023/09/19 05:45:56;;;;;;;418.97;406.30;;;;;;;;;;5039768;28;20644;-91
2023/09/19 05:48:22;;;;;;;468.47;453.17;;;;;;;;;;5032379;28;20216;-90
2023/09/19 05:50:51;;;;;;;470.17;455.30;;;;;;;;;;5037997;28;20189;-89
2023/09/19 05:53:18;;;;;;;428.20;415.20;;;;;;;;;;5036651;28;20220;-90
2023/09/19 05:55:45;;;;;;;413.87;401.13;;;;;;;;;;5033011;28;20197;-89
2023/09/19 05:58:13;;;;;;;438.90;425.33;;;;;;;;;;5036353;28;20722;-90
2023/09/19 06:00:42;;;;;;;432.27;418.93;;;;;;;;;;5022169;28;20188;-89
2023/09/19 06:03:09;;;;;;;398.77;386.77;;;;;;;;;;5041968;28;20250;-89
2023/09/19 06:05:35;;;;;;;412.63;399.80;;;;;;;;;;5036607;28;20209;-89
2023/09/19 06:08:07;;;;;;;390.30;378.57;;;;;;;;;;5040829;28;20191;-90
2023/09/19 06:10:34;;;;;;;411.93;398.90;;;;;;;;;;5028535;28;20547;-89
2023/09/19 06:13:04;;;;;;;423.07;410.07;;;;;;;;;;5039159;28;20228;-88
2023/09/19 06:15:32;;;;;;;408.20;395.80;;;;;;;;;;5037493;28;20278;-89
2023/09/19 06:17:59;;;;;;;382.43;371.00;;;;;;;;;;5010610;28;20215;-89
2023/09/19 06:20:26;;;;;;;425.23;411.87;;;;;;;;;;5027101;28;20206;-87
2023/09/19 06:22:52;;;;;;;411.40;398.60;;;;;;;;;;5004309;28;20663;-88
2023/09/19 06:25:21;;;;;;;392.77;381.13;;;;;;;;;;5009775;28;20229;-89
2023/09/19 06:27:54;;;;;;;387.10;375.60;;;;;;;;;;5024952;28;20187;-88
2023/09/19 06:30:21;;;;;;;391.53;379.73;;;;;;;;;;5029897;28;20187;-88
2023/09/19 06:32:48;;;;;;;401.47;389.30;;;;;;;;;;5028488;28;20188;-90
2023/09/19 06:35:15;;;;;;;417.37;404.57;;;;;;;;;;5023970;28;20219;-90
2023/09/19 06:37:41;;;;;;;426.67;413.27;;;;;;;;;;5030441;28;20200;-88
2023/09/19 06:40:14;;;;;;;392.63;380.83;;;;;;;;;;5031135;28;20195;-89
2023/09/19 06:42:47;;;;;;;401.03;388.87;;;;;;;;;;5023292;28;20616;-89
2023/09/19 06:45:17;;;;;;;385.90;374.40;;;;;;;;;;5024564;28;20223;-90
2023/09/19 06:47:45;;;;;;;394.00;382.07;;;;;;;;;;5028593;28;20244;-89
2023/09/19 06:50:14;;;;;;;385.73;374.20;;;;;;;;;;5025808;28;20249;-89
2023/09/19 06:52:43;;;;;;;405.60;392.90;;;;;;;;;;5028451;28;21096;-89
2023/09/19 06:55:13;;;;;;;405.47;393.27;;;;;;;;;;5028224;28;20220;-89
2023/09/19 06:57:45;;;;;;;399.20;386.83;;;;;;;;;;5016781;28;20190;-89
2023/09/19 07:00:45;;;;;;;375.40;364.03;;;;;;;;;;5024795;28;20193;-88
2023/09/19 07:03:08;;;;;;;364.27;353.17;;;;;;;;;;5019743;28;20193;-88
2023/09/19 07:05:37;;;;;;;388.80;376.77;;;;;;;;;;5027013;28;20208;-88
2023/09/19 07:08:03;;;;;;;406.40;393.70;;;;;;;;;;5029537;28;20217;-91
2023/09/19 07:10:30;;;;;;;390.67;378.93;;;;;;;;;;5024341;28;20193;-88
2023/09/19 07:13:00;;;;;;;404.57;392.07;;;;;;;;;;5029631;28;20258;-89
2023/09/19 07:15:26;;;;;;;381.93;370.33;;;;;;;;;;5006941;28;20865;-89
2023/09/19 07:17:53;;;;;;;399.23;387.13;;;;;;;;;;5024182;28;20184;-90
2023/09/19 07:20:19;;;;;;;375.60;364.33;;;;;;;;;;5032000;28;20194;-89
2023/09/19 07:22:47;;;;;;;382.73;371.10;;;;;;;;;;5023570;28;20200;-89
2023/09/19 07:25:13;;;;;;;379.83;368.27;;;;;;;;;;5011190;28;20291;-86
2023/09/19 07:27:40;;;;;;;373.10;362.03;;;;;;;;;;5012721;28;20181;-88
2023/09/19 07:30:08;;;;;;;331.57;321.23;;;;;;;;;;5004884;28;20213;-89
2023/09/19 07:32:37;;;;;;;345.00;334.67;;;;;;;;;;5027238;28;20556;-88
2023/09/19 07:35:03;;;;;;;338.63;328.33;;;;;;;;;;5031512;28;20227;-89
2023/09/19 07:37:33;;;;;;;333.07;323.23;;;;;;;;;;5028303;28;20203;-87
2023/09/19 07:39:59;;;;;;;343.87;333.60;;;;;;;;;;5002034;28;20301;-89
2023/09/19 07:42:25;;;;;;;337.60;327.67;;;;;;;;;;5032839;28;20264;-88
2023/09/19 07:44:53;;;;;;;354.53;344.03;;;;;;;;;;5030678;28;20606;-88
2023/09/19 07:47:19;;;;;;;353.33;342.93;;;;;;;;;;5027968;28;20241;-88
2023/09/19 07:49:47;;;;;;;357.30;346.53;;;;;;;;;;5020601;28;20697;-89
2023/09/19 07:52:13;;;;;;;333.43;323.47;;;;;;;;;;5031313;28;20190;-89
2023/09/19 07:54:44;;;;;;;333.47;323.40;;;;;;;;;;5023203;28;21495;-88
2023/09/19 07:57:11;;;;;;;354.80;344.07;;;;;;;;;;5027409;28;20217;-88
2023/09/19 07:59:38;;;;;;;338.17;328.10;;;;;;;;;;5010678;28;20633;-89
2023/09/19 08:02:04;;;;;;;355.30;344.83;;;;;;;;;;5027608;28;20193;-88
2023/09/19 08:04:33;;;;;;;358.03;347.30;;;;;;;;;;5030635;28;20219;-88
2023/09/19 08:07:00;;;;;;;366.77;355.00;;;;;;;;;;5030209;28;20216;-88
2023/09/19 08:09:27;;;;;;;319.07;309.83;;;;;;;;;;5026470;28;20182;-88
2023/09/19 08:11:53;;;;;;;267.33;259.67;;;;;;;;;;5007586;28;20193;-88
2023/09/19 08:14:19;;;;;;;282.25;274.10;;;;;;;;;;5030525;28;20597;-88
2023/09/19 08:16:46;;;;;;;284.33;275.90;;;;;;;;;;5028827;28;20199;-89
2023/09/19 08:19:12;;;;;;;278.48;270.35;;;;;;;;;;5032612;28;20751;-88
2023/09/19 08:21:38;;;;;;;325.45;316.10;;;;;;;;;;5024302;28;20296;-88
2023/09/19 08:24:04;;;;;;;310.95;301.92;;;;;;;;;;5030805;28;20235;-87
2023/09/19 08:26:31;;;;;;;334.80;324.38;;;;;;;;;;5029753;28;20229;-88
2023/09/19 08:28:57;;;;;;;352.05;341.50;;;;;;;;;;5026166;28;20550;-88
2023/09/19 08:31:25;;;;;;;399.30;387.08;;;;;;;;;;5027782;28;20803;-88
2023/09/19 08:33:52;;;;;;;326.20;316.67;;;;;;;;;;5029498;28;20571;-89
2023/09/19 08:36:18;;;;;;;455.15;441.02;;;;;;;;;;5008452;28;20191;-87
2023/09/19 08:38:44;;;;;;;440.38;426.70;;;;;;;;;;5033928;28;20287;-82
2023/09/19 08:41:10;;;;;;;526.35;509.08;;;;;;;;;;5029950;28;20192;-89
2023/09/19 08:43:37;;;;;;;517.00;500.20;;;;;;;;;;5030409;28;20229;-85
2023/09/19 08:46:05;;;;;;;463.50;447.10;;;;;;;;;;5028350;28;20314;-86
2023/09/19 08:48:32;;;;;;;469.83;453.73;;;;;;;;;;5031788;28;20187;-89
2023/09/19 08:51:01;;;;;;;408.67;396.35;;;;;;;;;;5028918;28;20199;-90
2023/09/19 08:53:31;;;;;;;490.20;474.35;;;;;;;;;;5029255;28;20247;-90
2023/09/19 08:56:03;;;;;;;457.63;443.27;;;;;;;;;;5008032;28;20209;-88
2023/09/19 08:58:33;;;;;;;516.40;499.98;;;;;;;;;;5028537;28;20194;-89
2023/09/19 09:01:01;;;;;;;489.95;474.25;;;;;;;;;;5029562;28;20259;-91
2023/09/19 09:03:27;;;;;;;459.45;445.00;;;;;;;;;;5031193;28;20212;-88
2023/09/19 09:05:53;;;;;;;482.90;467.23;;;;;;;;;;5035299;28;20885;-88
2023/09/19 09:08:21;;;;;;;502.60;486.00;;;;;;;;;;5030816;28;20189;-88
2023/09/19 09:10:48;;;;;;;490.02;474.45;;;;;;;;;;5029053;28;20260;-88
2023/09/19 09:13:15;;;;;;;492.30;476.55;;;;;;;;;;5016712;28;20210;-89
2023/09/19 09:15:42;;;;;;;376.65;365.45;;;;;;;;;;5039000;28;20685;-90
2023/09/19 09:18:08;;;;;;;434.10;420.92;;;;;;;;;;5038087;28;20197;-91
2023/09/19 09:20:35;;;;;;;418.73;406.05;;;;;;;;;;5037695;28;20185;-90
2023/09/19 09:23:03;;;;;;;424.58;411.60;;;;;;;;;;5021602;28;20199;-90
2023/09/19 09:25:50;;;;;;;441.02;427.55;;;;;;;;;;5038333;28;20208;-90
2023/09/19 09:28:20;;;;;;;413.60;401.25;;;;;;;;;;5035370;28;20181;-89
2023/09/19 09:30:46;;;;;;;1999.90;999.90;;;;;;;;;;5039042;28;20195;-89
2023/09/19 09:33:13;;;;;;;1999.90;999.90;;;;;;;;;;5022038;28;20188;-89
2023/09/19 09:35:56;;;;;;;1999.90;999.90;;;;;;;;;;5022173;28;20196;-88
2023/09/19 09:38:28;;;;;;;1999.90;999.90;;;;;;;;;;5021251;28;20299;-90
2023/09/19 09:41:06;;;;;;;1999.90;999.90;;;;;;;;;;5036071;28;20188;-89
2023/09/19 09:43:40;;;;;;;1999.90;999.90;;;;;;;;;;5039603;28;20203;-90
2023/09/19 09:49:19;;;;;;;1999.90;999.90;;;;;;;;;;5036266;28;20190;-90
2023/09/19 09:51:59;;;;;;;1999.90;999.90;;;;;;;;;;5039581;28;20246;-90
2023/09/19 09:54:41;;;;;;;1999.90;999.90;;;;;;;;;;5041769;28;20708;-90
2023/09/19 09:57:14;;;;;;;1999.90;999.90;;;;;;;;;;5041816;28;20272;-90
2023/09/19 09:59:47;;;;;;;1999.90;999.90;;;;;;;;;;5040953;28;20246;-90
2023/09/19 10:02:25;;;;;;;1999.90;999.90;;;;;;;;;;5038828;28;20181;-89
2023/09/19 10:05:14;;;;;;;1999.90;999.90;;;;;;;;;;5040019;28;20212;-91
2023/09/19 10:07:49;;;;;;;1999.90;999.90;;;;;;;;;;5039605;28;20201;-89
2023/09/19 10:10:21;;;;;;;1999.90;999.90;;;;;;;;;;5039980;28;20669;-91
2023/09/19 10:12:49;;;;;;;1999.90;999.90;;;;;;;;;;5035070;28;20189;-89
2023/09/19 10:15:24;;;;;;;1999.90;999.90;;;;;;;;;;5038953;28;20579;-90
2023/09/19 10:17:54;;;;;;;1999.90;999.90;;;;;;;;;;5038377;28;20192;-91
2023/09/19 10:20:37;;;;;;;1999.90;999.90;;;;;;;;;;5038837;28;20183;-89
2023/09/19 10:23:09;;;;;;;1999.90;999.90;;;;;;;;;;5038915;28;20177;-90
2023/09/19 10:25:36;;;;;;;1999.90;999.90;;;;;;;;;;5038692;28;20231;-90
2023/09/19 10:28:03;;;;;;;1999.90;999.90;;;;;;;;;;5039413;28;20558;-89
2023/09/19 10:30:30;;;;;;;1999.90;999.90;;;;;;;;;;5039583;28;20189;-89
2023/09/19 10:33:03;;;;;;;1999.90;999.90;;;;;;;;;;5039978;28;20177;-90
2023/09/19 10:35:30;;;;;;;1999.90;999.90;;;;;;;;;;5039217;28;20208;-90
2023/09/19 10:38:00;;;;;;;1999.90;999.90;;;;;;;;;;5038838;28;20200;-90
2023/09/19 10:40:30;;;;;;;1999.90;999.90;;;;;;;;;;5039288;28;20188;-90
2023/09/19 10:43:01;;;;;;;1999.90;999.90;;;;;;;;;;5038642;28;20276;-90
2023/09/19 10:45:29;;;;;;;1999.90;999.90;;;;;;;;;;5020508;28;20212;-90
2023/09/19 10:47:56;;;;;;;1999.90;999.90;;;;;;;;;;5020303;28;20220;-91
2023/09/19 10:50:22;;;;;;;1999.90;999.90;;;;;;;;;;5023707;28;20264;-91
2023/09/19 10:52:51;;;;;;;1999.90;999.90;;;;;;;;;;5057441;28;20252;-89
2023/09/19 10:55:18;;;;;;;1999.90;999.90;;;;;;;;;;5051775;28;20208;-90
2023/09/19 10:57:48;;;;;;;1999.90;999.90;;;;;;;;;;5050066;28;20212;-89
2023/09/19 11:00:24;;;;;;;1999.90;999.90;;;;;;;;;;5040592;28;20181;-90
2023/09/19 11:03:09;;;;;;;1999.90;999.90;;;;;;;;;;5043464;28;20191;-89
2023/09/19 11:05:37;;;;;;;1999.90;999.90;;;;;;;;;;5050064;28;20228;-89
2023/09/19 11:08:04;;;;;;;1999.90;999.90;;;;;;;;;;5038726;28;20187;-90
2023/09/19 11:10:48;;;;;;;1999.90;999.90;;;;;;;;;;5038126;28;20173;-90
2023/09/19 11:13:31;;;;;;;1999.90;999.90;;;;;;;;;;5038975;28;20197;-89
2023/09/19 11:16:00;;;;;;;1999.90;999.90;;;;;;;;;;5037443;28;20188;-89
2023/09/19 11:18:41;;;;;;;1999.90;999.90;;;;;;;;;;5038938;28;20203;-90
2023/09/19 11:21:31;;;;;;;1999.90;999.90;;;;;;;;;;5029397;28;20189;-91
2023/09/19 11:24:27;;;;;;;1999.90;999.90;;;;;;;;;;5039824;28;20204;-90
2023/09/19 11:27:09;;;;;;;1999.90;999.90;;;;;;;;;;5038860;28;20263;-90
2023/09/19 11:29:35;;;;;;;1999.90;999.90;;;;;;;;;;5033954;28;20271;-90
2023/09/19 11:32:02;;;;;;;1999.90;999.90;;;;;;;;;;5038698;28;20219;-90
2023/09/19 11:34:37;;;;;;;1999.90;999.90;;;;;;;;;;5031797;28;20212;-91
2023/09/19 11:37:04;;;;;;;1999.90;999.90;;;;;;;;;;5021246;28;20302;-91
2023/09/19 11:39:30;;;;;;;1999.90;999.90;;;;;;;;;;5036170;28;20195;-89
2023/09/19 11:41:57;;;;;;;1999.90;999.90;;;;;;;;;;5036099;28;20250;-89
2023/09/19 11:44:38;;;;;;;1999.90;999.90;;;;;;;;;;5036721;28;20212;-90
2023/09/19 11:47:05;;;;;;;1999.90;999.90;;;;;;;;;;5035464;28;20205;-91
2023/09/19 11:49:33;;;;;;;1999.90;999.90;;;;;;;;;;5035975;28;20209;-91
2023/09/19 11:52:01;;;;;;;1999.90;999.90;;;;;;;;;;5035832;28;20768;-91
2023/09/19 11:54:31;;;;;;;1999.90;999.90;;;;;;;;;;5036024;28;20213;-91
2023/09/19 11:56:57;;;;;;;1999.90;999.90;;;;;;;;;;5035916;28;20264;-90
2023/09/19 11:59:24;;;;;;;1999.90;999.90;;;;;;;;;;5018160;28;20205;-90
2023/09/19 12:01:57;;;;;;;1999.90;999.90;;;;;;;;;;5036634;28;20256;-90
2023/09/19 12:04:40;;;;;;;1999.90;999.90;;;;;;;;;;5036845;28;20831;-89
2023/09/19 12:07:10;;;;;;;1999.90;999.90;;;;;;;;;;5018541;28;20212;-90
2023/09/19 12:09:36;;;;;;;1999.90;999.90;;;;;;;;;;5019193;28;20206;-90
2023/09/19 12:12:02;;;;;;;1999.90;999.90;;;;;;;;;;5018101;28;20228;-90
2023/09/19 12:14:28;;;;;;;1999.90;999.90;;;;;;;;;;5039351;28;20216;-91
2023/09/19 12:16:55;;;;;;;1999.90;999.90;;;;;;;;;;5043101;28;20559;-90
2023/09/19 12:19:23;;;;;;;1999.90;999.90;;;;;;;;;;5018035;28;20232;-89
2023/09/19 12:21:57;;;;;;;1999.90;999.90;;;;;;;;;;5036366;28;20232;-90
2023/09/19 12:24:26;;;;;;;1999.90;999.90;;;;;;;;;;5036646;28;20266;-91
2023/09/19 12:26:52;;;;;;;1999.90;999.90;;;;;;;;;;5032301;28;20264;-90
2023/09/19 12:29:22;;;;;;;1999.90;999.90;;;;;;;;;;5029741;28;20189;-91
2023/09/19 12:31:55;;;;;;;1999.90;999.90;;;;;;;;;;5027580;28;20177;-90
2023/09/19 12:34:22;;;;;;;1999.90;999.90;;;;;;;;;;5034593;28;20216;-90
2023/09/19 12:36:49;;;;;;;1999.90;999.90;;;;;;;;;;5033274;28;20180;-90
2023/09/19 12:39:25;;;;;;;1999.90;999.90;;;;;;;;;;5037985;28;20185;-91
2023/09/19 12:41:53;;;;;;;1999.90;999.90;;;;;;;;;;5040274;28;20247;-89
2023/09/19 12:44:19;;;;;;;1999.90;999.90;;;;;;;;;;5040479;28;20219;-89
2023/09/19 12:46:45;;;;;;;1999.90;999.90;;;;;;;;;;5039667;28;20344;-90
2023/09/19 12:49:21;;;;;;;1999.90;999.90;;;;;;;;;;5040533;28;20241;-90
2023/09/19 12:51:47;;;;;;;1999.90;999.90;;;;;;;;;;5040764;28;20181;-91
2023/09/19 12:54:16;;;;;;;1999.90;999.90;;;;;;;;;;5038878;28;20698;-90
2023/09/19 12:56:50;;;;;;;1999.90;999.90;;;;;;;;;;5040416;28;20189;-90
2023/09/19 12:59:16;;;;;;;1999.90;999.90;;;;;;;;;;5049286;28;20180;-90
2023/09/19 13:01:53;;;;;;;1999.90;999.90;;;;;;;;;;5042649;28;20757;-90
2023/09/19 13:04:20;;;;;;;1999.90;999.90;;;;;;;;;;5032572;28;20200;-90
2023/09/19 13:06:48;;;;;;;1999.90;999.90;;;;;;;;;;5025707;28;20235;-88
2023/09/19 13:09:15;;;;;;;1999.90;999.90;;;;;;;;;;5040968;28;20173;-90
2023/09/19 13:11:45;;;;;;;1999.90;999.90;;;;;;;;;;5042093;28;20187;-90
2023/09/19 13:14:14;;;;;;;1999.90;999.90;;;;;;;;;;5054942;28;20239;-90
2023/09/19 13:16:53;;;;;;;1999.90;999.90;;;;;;;;;;5047670;28;20276;-90
2023/09/19 13:19:40;;;;;;;1999.90;999.90;;;;;;;;;;5044128;28;20184;-91
2023/09/19 13:22:26;;;;;;;1999.90;999.90;;;;;;;;;;5028890;28;20205;-90
2023/09/19 13:24:52;;;;;;;1999.90;999.90;;;;;;;;;;5032359;28;20231;-90
2023/09/19 13:27:18;;;;;;;1999.90;999.90;;;;;;;;;;5039610;28;20582;-89
2023/09/19 13:29:44;;;;;;;1999.90;999.90;;;;;;;;;;5022352;28;20200;-92
2023/09/19 13:32:11;;;;;;;1999.90;999.90;;;;;;;;;;5040252;28;20197;-90
2023/09/19 13:34:37;;;;;;;1999.90;999.90;;;;;;;;;;5021495;28;20211;-90
2023/09/19 13:37:04;;;;;;;1999.90;999.90;;;;;;;;;;5041923;28;20193;-92
2023/09/19 13:39:30;;;;;;;1999.90;999.90;;;;;;;;;;5039187;28;20193;-90
2023/09/19 13:41:56;;;;;;;1999.90;999.90;;;;;;;;;;5038335;28;20809;-91
2023/09/19 13:44:23;;;;;;;1999.90;999.90;;;;;;;;;;5030973;28;20304;-90
2023/09/19 13:46:49;;;;;;;1999.90;999.90;;;;;;;;;;5031243;28;20213;-89
2023/09/19 13:49:15;;;;;;;1999.90;999.90;;;;;;;;;;5020417;28;20231;-91
2023/09/19 13:51:43;;;;;;;1999.90;999.90;;;;;;;;;;5020966;28;20284;-90
2023/09/19 13:54:11;;;;;;;1999.90;999.90;;;;;;;;;;5038811;28;20189;-90
2023/09/19 13:56:38;;;;;;;1999.90;999.90;;;;;;;;;;5021113;28;20196;-91
2023/09/19 13:59:04;;;;;;;1999.90;999.90;;;;;;;;;;5038157;28;20251;-91
2023/09/19 14:01:30;;;;;;;1999.90;999.90;;;;;;;;;;5038925;28;20200;-90
2023/09/19 14:03:57;;;;;;;1999.90;999.90;;;;;;;;;;5020911;28;20209;-90